Time;durP1;ratioP1;P1;durP2;ratioP2;P2;SDS_P1;SDS_P2;PMS_P1;PMS_P2;Temp;Humidity;BMP_temperature;BMP_pressure;BME280_temperature;BME280_humidity;BME280_pressure;Samples;Min_cycle;Max_cycle;Signal;HPM_P1;HPM_P2
2021/07/11 00:01:55;;;;;;;21.33;15.15;;;19.20;94.80;;;18.75;88.21;100461.75;5021841;28;20084;-79
2021/07/11 00:04:22;;;;;;;22.95;16.13;;;19.20;94.90;;;18.75;87.99;100458.13;4990747;28;20093;-79
2021/07/11 00:06:51;;;;;;;22.40;15.88;;;19.10;94.90;;;18.75;88.02;100455.38;4990223;28;20550;-79
2021/07/11 00:09:18;;;;;;;21.17;14.90;;;19.10;94.90;;;18.71;88.24;100452.25;4990758;28;20074;-79
2021/07/11 00:11:45;;;;;;;20.65;15.70;;;19.10;95.00;;;18.70;88.33;100447.84;4990762;28;20058;-79
2021/07/11 00:14:13;;;;;;;20.42;14.63;;;19.10;95.00;;;18.67;88.28;100448.31;4990483;28;20576;-79
2021/07/11 00:16:40;;;;;;;18.83;14.07;;;19.10;95.10;;;18.68;88.46;100451.94;4990350;28;20066;-79
2021/07/11 00:19:07;;;;;;;17.45;14.05;;;19.10;95.20;;;18.67;88.39;100445.56;4990495;28;20077;-79
2021/07/11 00:21:34;;;;;;;18.58;13.60;;;19.10;95.10;;;18.69;88.22;100443.41;4990446;28;20046;-78
2021/07/11 00:24:04;;;;;;;18.08;13.55;;;19.10;95.00;;;18.66;88.45;100438.38;4990385;28;20106;-79
2021/07/11 00:26:31;;;;;;;20.40;13.43;;;19.10;95.10;;;18.67;88.28;100433.69;4989933;28;20050;-79
2021/07/11 00:28:58;;;;;;;20.60;12.27;;;19.10;95.00;;;18.65;88.05;100439.44;4989962;28;20046;-79
2021/07/11 00:31:25;;;;;;;18.75;13.00;;;19.10;94.90;;;18.63;88.22;100444.34;4990307;28;20057;-79
2021/07/11 00:33:53;;;;;;;18.35;13.27;;;19.10;95.00;;;18.62;88.20;100448.22;4990243;28;20063;-79
2021/07/11 00:36:20;;;;;;;19.52;12.77;;;19.10;95.00;;;18.62;88.08;100442.69;4971866;28;20702;-79
2021/07/11 00:38:47;;;;;;;15.20;11.38;;;19.00;94.90;;;18.61;88.14;100441.00;4990093;28;20042;-79
2021/07/11 00:41:16;;;;;;;20.80;12.82;;;19.00;95.10;;;18.59;88.23;100447.84;4988447;28;20050;-79
2021/07/11 00:43:43;;;;;;;15.88;12.07;;;19.00;95.10;;;18.56;88.44;100444.50;4990107;28;20046;-79
2021/07/11 00:46:15;;;;;;;16.13;11.98;;;19.00;95.10;;;18.56;88.38;100450.00;4971943;28;20588;-78
2021/07/11 00:48:43;;;;;;;16.08;11.15;;;19.00;95.20;;;18.54;88.27;100459.56;4972058;28;20043;-79
2021/07/11 00:51:11;;;;;;;18.73;13.10;;;19.00;95.20;;;18.52;88.54;100464.50;4988584;28;20061;-79
2021/07/11 00:53:51;;;;;;;18.88;13.13;;;19.00;95.30;;;18.51;88.42;100460.91;4989824;28;20070;-79
2021/07/11 00:56:20;;;;;;;20.67;13.82;;;18.90;95.30;;;18.52;88.25;100450.72;4987982;28;20149;-79
2021/07/11 00:58:48;;;;;;;19.38;13.20;;;18.90;95.40;;;18.53;88.06;100456.00;4971662;28;20133;-79
2021/07/11 01:01:21;;;;;;;19.00;13.95;;;18.90;95.40;;;18.53;88.39;100457.91;4989664;28;20100;-79
2021/07/11 01:03:55;;;;;;;20.98;14.13;;;18.90;95.50;;;18.51;88.62;100466.41;4971900;28;20173;-79
2021/07/11 01:06:23;;;;;;;20.17;13.95;;;18.90;95.60;;;18.51;88.35;100465.59;4989382;28;20096;-79
2021/07/11 01:09:01;;;;;;;20.23;13.93;;;18.90;95.50;;;18.49;88.33;100476.00;4989371;28;20038;-79
2021/07/11 01:11:42;;;;;;;21.02;14.50;;;18.90;95.40;;;18.49;88.07;100476.00;4988165;28;20050;-79
2021/07/11 01:14:10;;;;;;;19.95;14.13;;;18.90;95.30;;;18.48;88.58;100486.16;4989677;28;20046;-79
2021/07/11 01:16:39;;;;;;;19.42;14.05;;;18.90;95.40;;;18.47;88.24;100479.00;4971459;28;20050;-79
2021/07/11 01:19:20;;;;;;;23.55;14.50;;;18.90;95.60;;;18.48;88.42;100483.41;4988098;28;20163;-79
2021/07/11 01:21:52;;;;;;;20.05;13.70;;;18.90;95.60;;;18.48;88.78;100485.34;4971769;28;20042;-79
2021/07/11 01:24:33;;;;;;;19.02;13.80;;;18.90;95.70;;;18.46;89.05;100477.31;4988147;28;20132;-79
2021/07/11 01:27:05;;;;;;;18.52;13.10;;;18.90;95.90;;;18.47;89.11;100480.91;4971302;28;20051;-78
2021/07/11 01:29:33;;;;;;;18.90;13.38;;;18.90;95.90;;;18.45;88.94;100477.53;4972126;28;20414;-79
2021/07/11 01:32:02;;;;;;;20.73;13.13;;;18.90;96.00;;;18.45;89.32;100469.25;4971566;28;20081;-79
2021/07/11 01:34:31;;;;;;;19.17;12.43;;;18.90;96.00;;;18.46;89.34;100477.31;4971602;28;20519;-79
2021/07/11 01:37:00;;;;;;;18.40;13.70;;;18.90;96.10;;;18.47;89.10;100478.16;4971043;28;20479;-79
2021/07/11 01:39:32;;;;;;;19.00;12.68;;;18.90;96.10;;;18.46;89.21;100476.47;4989359;28;20038;-78
2021/07/11 01:42:00;;;;;;;17.10;11.73;;;18.90;96.10;;;18.44;89.39;100473.94;4989277;28;20046;-78
2021/07/11 01:44:31;;;;;;;20.13;12.40;;;18.90;96.20;;;18.45;89.28;100475.63;4989217;28;20097;-79
2021/07/11 01:47:01;;;;;;;18.05;11.77;;;18.90;96.10;;;18.45;89.24;100480.28;4988842;28;20073;-79
2021/07/11 01:49:29;;;;;;;16.98;11.98;;;18.90;96.20;;;18.44;89.17;100475.88;4971583;28;20035;-79
2021/07/11 01:51:59;;;;;;;17.33;12.20;;;18.90;96.20;;;18.45;89.33;100485.81;4987831;28;20069;-78
2021/07/11 01:54:29;;;;;;;21.00;13.10;;;18.90;96.10;;;18.43;89.24;100479.69;4988879;28;20384;-79
2021/07/11 01:56:58;;;;;;;17.73;12.33;;;18.90;96.00;;;18.42;89.28;100475.28;4988850;28;20057;-79
2021/07/11 01:59:25;;;;;;;18.33;12.63;;;18.90;96.10;;;18.41;89.25;100474.44;4971075;28;20054;-79
2021/07/11 02:02:13;;;;;;;16.15;11.90;;;18.90;95.90;;;18.39;89.29;100473.84;4974734;28;20053;-79
2021/07/11 02:04:45;;;;;;;20.58;12.88;;;18.90;96.00;;;18.38;89.61;100474.91;4991378;28;20501;-78
2021/07/11 02:07:14;;;;;;;21.65;13.13;;;18.80;96.00;;;18.38;89.38;100474.91;4993273;28;20517;-79
2021/07/11 02:09:42;;;;;;;19.42;12.95;;;18.80;96.00;;;18.39;89.27;100484.00;4994562;28;20049;-79
2021/07/11 02:12:15;;;;;;;19.15;13.27;;;18.80;96.10;;;18.38;89.42;100485.09;5010758;28;20100;-79
2021/07/11 02:14:51;;;;;;;19.23;13.02;;;18.80;96.10;;;18.36;89.40;100483.41;4994487;28;20078;-78
2021/07/11 02:17:25;;;;;;;22.67;13.65;;;18.80;96.20;;;18.36;89.59;100483.41;4993809;28;20045;-79
2021/07/11 02:20:07;;;;;;;21.33;14.20;;;18.80;96.20;;;18.34;90.10;100482.81;4994161;28;20046;-79
2021/07/11 02:22:41;;;;;;;21.25;14.52;;;18.80;96.40;;;18.36;89.86;100479.81;4993767;28;20522;-79
2021/07/11 02:25:12;;;;;;;24.02;14.60;;;18.80;96.40;;;18.35;89.92;100481.75;5010597;28;20700;-79
2021/07/11 02:27:44;;;;;;;20.80;13.95;;;18.80;96.40;;;18.36;89.83;100482.56;5010182;28;20165;-79
2021/07/11 02:30:15;;;;;;;24.75;15.70;;;18.80;96.40;;;18.32;90.11;100482.19;5011771;28;20426;-79
2021/07/11 02:32:48;;;;;;;25.52;15.13;;;18.80;96.40;;;18.33;90.25;100481.13;4994091;28;20529;-79
2021/07/11 02:35:21;;;;;;;20.63;13.75;;;18.80;96.30;;;18.34;90.21;100487.47;4993717;28;20482;-79
2021/07/11 02:37:51;;;;;;;20.92;14.73;;;18.80;96.40;;;18.35;90.22;100495.50;5010024;28;20453;-79
2021/07/11 02:40:22;;;;;;;24.45;15.07;;;18.90;96.50;;;18.33;90.63;100488.53;4993584;28;20430;-79
2021/07/11 02:42:54;;;;;;;22.00;14.90;;;18.80;96.60;;;18.34;90.53;100490.25;5011606;28;20503;-79
2021/07/11 02:45:27;;;;;;;22.65;15.52;;;18.80;96.70;;;18.34;90.58;100479.22;5010056;22;20038;-78
2021/07/11 02:47:57;;;;;;;24.30;16.35;;;18.80;96.80;;;18.32;90.44;100471.19;5030108;28;20037;-78
2021/07/11 02:50:25;;;;;;;26.70;16.40;;;18.80;96.80;;;18.32;90.65;100465.66;5031315;28;20099;-78
2021/07/11 02:52:58;;;;;;;25.70;15.90;;;18.80;96.70;;;18.32;90.56;100468.44;5013134;28;20055;-77
2021/07/11 02:55:31;;;;;;;27.27;16.65;;;18.80;96.80;;;18.32;90.59;100465.66;5010206;28;20100;-78
2021/07/11 02:58:05;;;;;;;24.33;15.80;;;18.80;96.80;;;18.31;90.32;100472.25;4993085;28;20444;-77
2021/07/11 03:00:38;;;;;;;27.00;16.95;;;18.80;96.80;;;18.32;90.29;100473.09;5011315;28;20092;-78
2021/07/11 03:03:11;;;;;;;23.67;16.77;;;18.80;96.90;;;18.31;90.45;100474.16;4993266;28;20089;-77
2021/07/11 03:05:49;;;;;;;27.42;18.00;;;18.80;97.00;;;18.28;90.70;100469.16;4993460;28;20053;-78
2021/07/11 03:08:17;;;;;;;25.17;17.85;;;18.80;96.90;;;18.29;90.41;100474.41;4993011;28;20054;-78
2021/07/11 03:10:48;;;;;;;25.70;16.80;;;18.80;97.00;;;18.29;90.63;100474.41;4993363;28;20053;-78
2021/07/11 03:13:18;;;;;;;26.25;17.73;;;18.80;97.00;;;18.30;90.58;100473.34;5010905;28;20041;-78
2021/07/11 03:15:48;;;;;;;25.75;17.50;;;18.80;97.10;;;18.29;90.44;100476.31;5010612;28;20128;-78
2021/07/11 03:18:22;;;;;;;26.20;16.98;;;18.80;97.00;;;18.30;90.48;100478.84;4993432;28;20050;-78
2021/07/11 03:20:51;;;;;;;26.25;17.40;;;18.80;97.00;;;18.27;90.49;100484.81;4993098;28;20100;-78
2021/07/11 03:23:20;;;;;;;24.17;16.67;;;18.80;97.00;;;18.27;90.74;100484.81;4993258;28;20073;-78
2021/07/11 03:25:50;;;;;;;23.88;16.33;;;18.80;97.10;;;18.26;90.68;100491.41;4992703;28;20053;-78
2021/07/11 03:28:17;;;;;;;23.02;16.70;;;18.70;97.20;;;18.24;90.65;100485.31;5010899;28;20144;-77
2021/07/11 03:30:49;;;;;;;24.05;16.67;;;18.80;97.20;;;18.24;90.92;100490.81;5010820;28;20124;-78
2021/07/11 03:33:18;;;;;;;29.23;19.90;;;18.80;97.30;;;18.23;90.91;100497.38;5010577;28;20128;-78
2021/07/11 03:35:53;;;;;;;25.73;17.05;;;18.80;97.30;;;18.22;90.80;100498.47;5010548;28;20399;-78
2021/07/11 03:38:27;;;;;;;33.05;19.35;;;18.80;97.30;;;18.23;90.96;100500.16;4992614;28;20050;-78
2021/07/11 03:40:56;;;;;;;27.52;19.23;;;18.70;97.30;;;18.23;90.99;100496.56;5010757;28;20727;-78
2021/07/11 03:43:28;;;;;;;26.77;19.30;;;18.70;97.40;;;18.24;90.94;100500.97;4992560;28;20049;-78
2021/07/11 03:45:59;;;;;;;28.17;19.48;;;18.70;97.40;;;18.22;90.64;100509.50;5010200;28;20147;-78
2021/07/11 03:48:31;;;;;;;28.90;19.00;;;18.70;97.30;;;18.22;90.54;100512.25;5010125;28;20045;-78
2021/07/11 03:51:05;;;;;;;29.38;19.80;;;18.70;97.20;;;18.21;91.01;100513.31;4992858;28;20501;-78
2021/07/11 03:53:36;;;;;;;27.42;18.77;;;18.70;97.50;;;18.22;90.71;100516.91;5010096;28;20066;-78
2021/07/11 03:56:06;;;;;;;29.55;20.42;;;18.70;97.40;;;18.19;91.07;100520.16;4992190;28;20567;-78
2021/07/11 03:58:40;;;;;;;32.80;20.48;;;18.70;97.40;;;18.19;91.07;100520.97;5010300;28;20108;-78
2021/07/11 04:01:08;;;;;;;29.48;20.33;;;18.60;97.40;;;18.17;91.04;100528.63;4989085;28;20046;-78
2021/07/11 04:03:39;;;;;;;28.65;19.85;;;18.70;97.70;;;18.17;91.14;100523.13;5010246;28;20042;-78
2021/07/11 04:06:13;;;;;;;32.70;20.42;;;18.60;97.50;;;18.17;91.35;100531.41;5009522;28;20453;-78
2021/07/11 04:08:42;;;;;;;33.60;20.85;;;18.60;97.60;;;18.17;91.29;100528.63;5009943;28;20074;-78
2021/07/11 04:11:09;;;;;;;31.02;21.27;;;18.60;97.60;;;18.17;91.13;100534.16;5009854;28;20042;-78
2021/07/11 04:13:37;;;;;;;33.47;21.55;;;18.60;97.60;;;18.16;91.56;100527.81;5009925;28;20494;-78
2021/07/11 04:16:08;;;;;;;28.98;19.85;;;18.60;97.70;;;18.15;91.49;100536.31;5009596;28;20050;-78
2021/07/11 04:18:42;;;;;;;29.77;19.67;;;18.60;97.90;;;18.14;91.70;100531.84;5009791;28;20061;-78
2021/07/11 04:21:13;;;;;;;27.48;19.52;;;18.60;97.90;;;18.14;91.83;100529.09;5007271;28;20561;-78
2021/07/11 04:23:42;;;;;;;33.17;21.67;;;18.60;97.90;;;18.15;91.75;100530.78;5008237;28;20710;-78
2021/07/11 04:26:11;;;;;;;32.13;21.48;;;18.60;97.90;;;18.15;91.74;100537.13;5009463;28;20096;-78
2021/07/11 04:28:43;;;;;;;31.63;20.75;;;18.60;97.80;;;18.16;91.62;100543.47;5009460;28;20074;-78
2021/07/11 04:31:11;;;;;;;28.75;21.10;;;18.60;97.90;;;18.15;91.78;100541.81;5009794;28;20038;-78
2021/07/11 04:33:38;;;;;;;31.65;20.27;;;18.60;97.90;;;18.15;91.66;100547.31;5009599;28;20073;-78
2021/07/11 04:36:10;;;;;;;32.00;20.88;;;18.60;97.80;;;18.17;91.64;100536.91;5007645;28;20049;-78
2021/07/11 04:38:37;;;;;;;33.20;21.63;;;18.70;98.00;;;18.15;91.90;100544.56;5009515;28;20077;-78
2021/07/11 04:41:06;;;;;;;30.33;21.45;;;18.60;97.90;;;18.15;91.87;100536.31;5007636;28;20089;-78
2021/07/11 04:43:33;;;;;;;30.42;21.23;;;18.60;97.90;;;18.15;91.78;100528.88;5008141;28;20049;-78
2021/07/11 04:46:01;;;;;;;31.20;21.42;;;18.70;98.10;;;18.16;91.70;100538.81;5008719;28;20117;-78
2021/07/11 04:48:28;;;;;;;30.60;20.88;;;18.70;98.00;;;18.16;91.55;100526.94;5009402;28;20046;-78
2021/07/11 04:50:55;;;;;;;34.88;20.65;;;18.70;98.00;;;18.15;91.70;100522.53;5007843;28;20069;-77
2021/07/11 04:53:24;;;;;;;29.75;21.30;;;18.70;97.90;;;18.14;92.04;100518.06;5007699;28;20146;-78
2021/07/11 04:55:54;;;;;;;31.08;20.55;;;18.70;98.00;;;18.15;91.85;100519.78;5009120;28;20526;-78
2021/07/11 04:58:21;;;;;;;32.33;22.25;;;18.70;98.10;;;18.14;92.13;100518.94;5008912;28;20042;-78
2021/07/11 05:00:48;;;;;;;33.03;22.63;;;18.70;98.00;;;18.14;92.07;100518.06;5009079;28;20053;-78
2021/07/11 05:03:16;;;;;;;39.03;23.88;;;18.70;97.80;;;18.15;91.89;100517.03;5007414;28;20080;-78
2021/07/11 05:05:43;;;;;;;32.88;22.35;;;18.80;97.80;;;18.15;91.77;100506.84;5007781;28;20703;-78
2021/07/11 05:08:10;;;;;;;37.15;24.65;;;18.80;97.70;;;18.17;91.84;100512.13;5007547;28;20144;-78
2021/07/11 05:10:39;;;;;;;35.53;23.70;;;18.80;97.80;;;18.16;92.16;100510.41;5008742;28;20038;-78
2021/07/11 05:13:06;;;;;;;35.97;23.58;;;18.80;97.80;;;18.16;92.33;100510.41;5009009;28;20552;-78
2021/07/11 05:15:33;;;;;;;34.42;23.13;;;18.80;97.70;;;18.17;92.58;100512.13;5008740;28;20673;-78
2021/07/11 05:18:00;;;;;;;35.42;24.70;;;18.80;97.80;;;18.16;92.83;100510.41;5008809;28;20052;-78
2021/07/11 05:20:28;;;;;;;37.55;25.25;;;18.80;97.90;;;18.16;92.48;100516.78;5007966;28;20046;-78
2021/07/11 05:22:55;;;;;;;37.42;25.27;;;18.80;97.70;;;18.20;92.67;100527.31;5007781;28;20133;-78
2021/07/11 05:25:22;;;;;;;42.38;26.35;;;18.80;97.70;;;18.18;92.45;100519.28;5008542;28;20046;-78
2021/07/11 05:27:51;;;;;;;38.88;26.45;;;18.80;97.70;;;18.21;92.38;100523.50;4990369;28;20540;-77
2021/07/11 05:30:20;;;;;;;42.67;27.65;;;18.80;97.70;;;18.21;92.18;100518.81;5008674;28;20045;-78
2021/07/11 05:32:48;;;;;;;43.85;26.88;;;18.80;97.60;;;18.22;92.42;100517.75;5008386;28;20517;-78
2021/07/11 05:35:15;;;;;;;42.30;28.90;;;18.80;97.60;;;18.23;92.28;100519.44;5007520;28;20074;-77
2021/07/11 05:37:42;;;;;;;44.08;29.80;;;18.90;97.70;;;18.22;92.17;100515.00;4990409;28;20108;-76
2021/07/11 05:40:11;;;;;;;46.35;29.67;;;18.90;97.70;;;18.23;92.74;100516.69;5008531;28;20045;-77
2021/07/11 05:42:38;;;;;;;48.22;30.80;;;18.90;97.90;;;18.21;92.33;100516.06;5008265;28;20120;-79
2021/07/11 05:45:08;;;;;;;49.05;29.77;;;18.90;97.60;;;18.22;92.58;100517.75;5008147;28;20131;-77
2021/07/11 05:47:35;;;;;;;57.95;32.67;;;18.90;97.50;;;18.23;92.41;100508.41;5008148;28;20053;-80
2021/07/11 05:50:03;;;;;;;50.75;32.15;;;18.90;97.60;;;18.24;92.98;100509.25;5008339;28;20112;-79
2021/07/11 05:52:30;;;;;;;52.63;32.30;;;19.00;97.80;;;18.25;92.52;100514.53;5008535;28;20085;-79
2021/07/11 05:54:58;;;;;;;51.25;31.88;;;19.00;97.50;;;18.24;93.13;100523.00;5008144;28;20070;-79
2021/07/11 05:57:27;;;;;;;51.20;31.58;;;19.00;97.80;;;18.24;93.25;100523.00;5008209;28;20711;-79
2021/07/11 05:59:55;;;;;;;46.55;31.30;;;19.00;97.80;;;18.26;93.01;100538.25;5008447;28;20460;-78
2021/07/11 06:02:24;;;;;;;48.88;30.23;;;19.00;97.70;;;18.26;93.50;100543.75;5008179;28;20133;-78
2021/07/11 06:04:51;;;;;;;52.17;31.42;;;19.00;97.80;;;18.28;93.47;100540.78;5008343;28;20068;-78
2021/07/11 06:07:18;;;;;;;52.67;33.35;;;19.10;98.10;;;18.29;93.33;100543.28;5007657;28;20052;-78
2021/07/11 06:09:46;;;;;;;50.05;32.42;;;19.00;97.80;;;18.29;93.35;100551.53;5005211;28;20070;-78
2021/07/11 06:12:15;;;;;;;49.85;31.45;;;19.10;97.60;;;18.30;92.94;100544.97;4990345;28;20511;-78
2021/07/11 06:14:43;;;;;;;51.25;32.20;;;19.10;97.60;;;18.30;93.24;100547.72;5008352;28;20092;-78
2021/07/11 06:17:10;;;;;;;56.40;34.00;;;19.10;97.60;;;18.31;92.99;100552.16;5008001;28;20042;-78
2021/07/11 06:19:38;;;;;;;55.85;35.65;;;19.10;97.70;;;18.32;93.27;100548.31;5007986;28;20057;-78
2021/07/11 06:22:06;;;;;;;61.05;34.47;;;19.10;97.70;;;18.32;93.28;100545.56;4990424;28;20140;-78
2021/07/11 06:24:33;;;;;;;54.60;34.97;;;19.10;97.70;;;18.32;93.47;100542.81;5008035;28;20459;-80
2021/07/11 06:27:00;;;;;;;62.15;35.28;;;19.10;97.60;;;18.35;93.67;100552.53;5007914;28;20140;-80
2021/07/11 06:29:27;;;;;;;61.78;37.00;;;19.20;97.90;;;18.37;93.62;100542.09;4991753;28;20050;-81
2021/07/11 06:31:55;;;;;;;63.33;37.58;;;19.30;97.50;;;18.39;93.43;100539.13;4990619;28;20046;-79
2021/07/11 06:34:22;;;;;;;64.30;38.25;;;19.30;97.20;;;18.41;93.25;100553.50;5005654;28;20046;-80
2021/07/11 06:36:50;;;;;;;64.93;38.13;;;19.30;96.90;;;18.42;93.30;100556.03;5005883;28;20128;-81
2021/07/11 06:39:18;;;;;;;64.95;39.58;;;19.40;96.90;;;18.44;93.02;100558.53;5008000;28;20125;-80
2021/07/11 06:41:46;;;;;;;65.60;38.47;;;19.40;96.50;;;18.46;93.09;100564.66;5007596;28;20046;-80
2021/07/11 06:44:13;;;;;;;68.40;40.35;;;19.50;96.40;;;18.45;93.29;100562.97;5007815;28;20133;-80
2021/07/11 06:46:40;;;;;;;65.80;39.13;;;19.50;96.40;;;18.48;93.23;100576.28;5007847;28;20053;-80
2021/07/11 06:49:07;;;;;;;65.72;40.33;;;19.60;96.00;;;18.50;93.27;100565.88;5011314;28;20091;-80
2021/07/11 06:51:35;;;;;;;70.28;40.15;;;19.60;95.70;;;18.52;93.24;100569.22;5011537;28;20050;-80
2021/07/11 06:54:03;;;;;;;74.03;42.47;;;19.60;95.90;;;18.52;93.24;100572.84;5010922;28;20142;-80
2021/07/11 06:56:30;;;;;;;70.15;39.63;;;19.60;95.90;;;18.54;93.81;100569.81;5010830;28;20049;-80
2021/07/11 06:58:58;;;;;;;75.03;42.17;;;19.60;96.00;;;18.55;93.70;100574.28;5011106;28;20049;-80
2021/07/11 07:01:25;;;;;;;74.55;42.13;;;19.70;95.90;;;18.55;93.63;100574.28;5011171;28;20049;-80
2021/07/11 07:03:52;;;;;;;71.72;41.83;;;19.70;95.90;;;18.56;93.60;100581.44;4997147;28;20125;-80
2021/07/11 07:06:19;;;;;;;72.55;41.08;;;19.70;95.80;;;18.56;93.40;100575.94;4983375;28;20050;-80
2021/07/11 07:08:47;;;;;;;74.55;43.28;;;19.70;95.90;;;18.58;93.22;100579.28;4996089;28;20117;-80
2021/07/11 07:11:15;;;;;;;75.85;42.08;;;19.70;95.80;;;18.59;93.61;100580.16;4994153;28;20140;-80
2021/07/11 07:13:42;;;;;;;68.97;40.90;;;19.70;96.00;;;18.61;93.69;100572.50;4999733;28;20034;-80
2021/07/11 07:16:10;;;;;;;71.13;40.75;;;19.90;95.70;;;18.64;93.92;100572.84;4997386;28;20351;-80
2021/07/11 07:18:37;;;;;;;72.30;41.05;;;20.00;95.30;;;18.66;93.85;100567.94;4995745;28;20506;-80
2021/07/11 07:21:04;;;;;;;76.35;41.28;;;20.10;94.80;;;18.68;94.43;100565.78;5007637;28;20115;-80
2021/07/11 07:23:32;;;;;;;71.22;41.70;;;20.10;95.50;;;18.72;94.66;100575.25;4994784;28;20069;-81
2021/07/11 07:25:59;;;;;;;70.13;41.15;;;20.20;95.20;;;18.73;94.43;100574.19;4994040;28;20089;-80
2021/07/11 07:28:27;;;;;;;76.43;44.35;;;20.30;94.60;;;18.75;94.46;100574.78;5007055;28;20169;-80
2021/07/11 07:30:55;;;;;;;80.80;45.50;;;20.20;95.00;;;18.75;95.16;100569.28;5010666;28;20042;-80
2021/07/11 07:33:22;;;;;;;76.00;44.78;;;20.20;95.20;;;18.76;94.75;100570.94;5010291;28;20046;-83
2021/07/11 07:35:50;;;;;;;79.28;45.30;;;20.20;94.90;;;18.80;95.07;100570.47;5010742;28;20071;-80
2021/07/11 07:38:17;;;;;;;85.90;49.10;;;20.20;95.50;;;18.81;94.75;100580.44;5010220;28;20085;-80
2021/07/11 07:40:45;;;;;;;89.30;50.03;;;20.20;94.60;;;18.82;94.39;100582.16;5010322;28;20576;-81
2021/07/11 07:43:13;;;;;;;104.60;55.30;;;20.30;94.70;;;18.85;94.52;100578.91;5010318;28;20421;-79
2021/07/11 07:45:43;;;;;;;107.13;54.95;;;20.30;94.60;;;18.86;94.48;100581.41;5009883;28;20054;-81
2021/07/11 07:48:11;;;;;;;109.38;56.22;;;20.30;94.50;;;18.88;95.19;100595.81;5010045;28;20060;-82
2021/07/11 07:50:39;;;;;;;90.65;49.58;;;20.30;95.00;;;18.89;94.97;100589.22;5009012;28;20107;-78
2021/07/11 07:53:06;;;;;;;79.97;45.70;;;20.40;94.50;;;18.90;94.45;100595.56;5010156;28;20045;-78
2021/07/11 07:55:34;;;;;;;73.30;43.25;;;20.30;94.10;;;18.91;94.73;100594.50;5009832;28;20104;-78
2021/07/11 07:58:02;;;;;;;75.18;42.13;;;20.40;94.40;;;18.93;95.57;100589.59;5008714;28;20078;-78
2021/07/11 08:00:30;;;;;;;64.57;38.40;;;20.40;95.30;;;18.94;95.11;100594.88;5009656;28;20042;-77
2021/07/11 08:02:59;;;;;;;53.60;35.25;;;20.50;94.60;;;18.95;94.41;100604.81;4991841;28;20128;-80
2021/07/11 08:05:27;;;;;;;50.30;32.95;;;20.50;93.40;;;18.98;94.18;100600.72;5009980;28;20049;-80
2021/07/11 08:07:54;;;;;;;47.60;30.67;;;20.60;93.60;;;18.99;94.99;100596.06;5006384;28;20042;-80
2021/07/11 08:10:22;;;;;;;46.50;31.83;;;20.60;93.70;;;19.00;94.87;100604.13;5009846;28;20074;-80
2021/07/11 08:12:49;;;;;;;50.50;32.33;;;20.50;93.80;;;19.01;95.39;100604.94;5009593;28;20077;-80
2021/07/11 08:15:19;;;;;;;46.63;32.58;;;20.60;94.20;;;19.01;95.18;100603.03;4992031;28;20513;-80
2021/07/11 08:17:50;;;;;;;49.05;31.60;;;20.50;94.20;;;19.03;94.95;100611.06;5009535;28;20097;-80
2021/07/11 08:20:22;;;;;;;48.60;33.08;;;20.50;94.40;;;19.02;94.58;100601.97;5009449;28;20100;-81
2021/07/11 08:22:50;;;;;;;47.92;32.40;;;20.40;94.40;;;19.02;95.01;100617.66;5009632;28;20751;-79
2021/07/11 08:25:18;;;;;;;49.00;31.33;;;20.30;95.00;;;19.01;94.97;100616.81;4991473;28;20123;-80
2021/07/11 08:27:47;;;;;;;46.90;32.28;;;20.30;95.50;;;18.98;94.89;100614.53;4991773;28;20049;-79
2021/07/11 08:30:17;;;;;;;51.88;32.65;;;20.20;95.40;;;18.98;95.10;100620.03;5009352;28;20461;-80
2021/07/11 08:32:45;;;;;;;51.90;32.97;;;20.10;95.80;;;18.97;95.16;100620.31;5009272;28;20552;-83
2021/07/11 08:35:14;;;;;;;60.15;36.53;;;20.10;96.20;;;18.97;95.14;100626.66;5009305;28;20537;-86
2021/07/11 08:37:42;;;;;;;57.63;35.83;;;20.10;96.20;;;18.95;95.23;100623.28;5009191;28;20124;-84
2021/07/11 08:40:12;;;;;;;63.17;36.78;;;20.00;96.50;;;18.95;95.45;100617.78;5009411;28;20073;-84
2021/07/11 08:42:41;;;;;;;65.50;38.22;;;20.10;96.60;;;18.98;95.97;100622.78;4991324;28;20510;-84
2021/07/11 08:45:10;;;;;;;74.35;38.83;;;20.20;96.50;;;19.00;95.97;100615.16;4991489;28;20041;-85
2021/07/11 08:47:39;;;;;;;64.50;38.40;;;20.40;96.30;;;19.04;96.37;100615.50;5020378;23;20081;-85
2021/07/11 08:50:08;;;;;;;66.75;37.53;;;20.50;96.00;;;19.05;96.50;100618.00;5008136;28;20100;-83
2021/07/11 08:52:36;;;;;;;69.22;38.60;;;20.60;95.20;;;19.06;96.32;100622.47;5009190;28;20633;-82
2021/07/11 08:55:16;;;;;;;69.40;38.28;;;20.60;94.80;;;19.07;96.38;100621.38;5009146;28;20050;-79
2021/07/11 08:57:49;;;;;;;66.68;37.38;;;20.60;94.70;;;19.10;96.11;100614.56;5008923;28;20133;-81
2021/07/11 09:00:18;;;;;;;66.93;38.03;;;20.60;95.20;;;19.10;95.89;100615.38;5008761;28;20125;-80
2021/07/11 09:02:47;;;;;;;64.57;37.88;;;20.60;94.70;;;19.11;96.34;100617.09;5008735;28;20092;-82
2021/07/11 09:05:31;;;;;;;75.63;40.33;;;20.60;95.00;;;19.10;96.02;100618.16;5008811;28;20044;-81
2021/07/11 09:08:08;;;;;;;76.93;41.85;;;20.50;94.90;;;19.10;95.76;100620.06;5008805;28;20104;-82
2021/07/11 09:10:42;;;;;;;72.40;38.80;;;20.50;95.40;;;19.09;95.87;100635.75;5008149;28;20124;-82
2021/07/11 09:13:13;;;;;;;70.68;38.00;;;20.40;95.40;;;19.07;95.88;100632.41;5009223;28;20042;-85
2021/07/11 09:15:45;;;;;;;69.90;39.10;;;20.30;95.60;;;19.06;95.69;100625.22;4990940;28;20522;-84
2021/07/11 09:18:13;;;;;;;69.88;39.10;;;20.30;95.90;;;19.08;95.87;100623.06;5008723;28;20078;-85
2021/07/11 09:20:52;;;;;;;71.75;38.65;;;20.30;96.00;;;19.05;96.43;100620.78;4989907;28;20563;-85
2021/07/11 09:23:22;;;;;;;73.03;37.42;;;20.50;95.40;;;19.10;97.19;100620.91;5011164;28;20076;-84
2021/07/11 09:26:04;;;;;;;71.88;37.92;;;20.70;95.60;;;19.18;100.00;100627.16;5008623;28;20046;-84
2021/07/11 09:28:34;;;;;;;75.28;39.53;;;20.90;96.30;;;19.22;100.00;100622.84;5008486;28;20076;-83
2021/07/11 09:31:09;;;;;;;69.68;37.25;;;21.10;95.60;;;19.29;100.00;100616.13;5008800;28;20128;-86
2021/07/11 09:33:39;;;;;;;63.72;34.30;;;21.40;95.10;;;19.34;100.00;100618.13;5008619;28;20100;-86
2021/07/11 09:36:09;;;;;;;64.43;34.17;;;21.50;94.20;;;19.40;100.00;100625.47;5008323;28;20146;-85
2021/07/11 09:38:38;;;;;;;66.07;35.17;;;21.70;93.30;;;19.47;100.00;100631.69;5008604;28;20069;-89
2021/07/11 09:41:21;;;;;;;63.13;34.22;;;21.90;92.90;;;19.46;100.00;100630.03;4990924;28;20131;-88
2021/07/11 09:43:49;;;;;;;64.22;33.67;;;21.90;92.00;;;19.48;100.00;100627.88;5007534;28;20120;-88
2021/07/11 09:46:18;;;;;;;59.40;32.80;;;21.90;92.30;;;19.54;100.00;100629.66;4990304;28;20057;-88
2021/07/11 09:48:46;;;;;;;60.05;33.17;;;21.90;91.90;;;19.60;100.00;100622.34;5007590;28;20049;-88
2021/07/11 09:51:16;;;;;;;54.55;31.77;;;22.10;91.60;;;19.65;100.00;100635.44;5007706;28;20038;-89
2021/07/11 09:53:43;;;;;;;57.70;33.05;;;22.10;90.50;;;19.71;100.00;100620.66;5008611;28;20050;-88
2021/07/11 09:56:29;;;;;;;58.63;32.83;;;22.30;91.20;;;19.76;100.00;100622.69;5007976;28;20129;-89
2021/07/11 09:58:57;;;;;;;52.97;29.45;;;22.40;90.80;;;19.79;99.68;100631.34;5008338;28;20117;-88
2021/07/11 10:01:25;;;;;;;52.75;31.30;;;22.50;89.90;;;19.87;100.00;100627.34;5007843;28;20092;-89
2021/07/11 10:03:52;;;;;;;47.25;28.92;;;22.50;90.40;;;19.88;99.45;100621.59;5008582;28;20597;-90
2021/07/11 10:06:19;;;;;;;53.10;29.85;;;22.50;89.50;;;19.91;99.16;100629.41;5005470;28;20469;-88
2021/07/11 10:08:47;;;;;;;54.58;31.05;;;22.50;89.30;;;19.88;96.32;100632.66;5008157;28;20128;-88
2021/07/11 10:11:14;;;;;;;54.72;31.73;;;22.50;88.30;;;19.83;95.62;100627.00;5008375;28;20626;-87